KSPS/SPS METAR and TAF weather

Enter ICAO airport designator
Station Type Date Time Source
KSPS METAR 2024/02/26 16:52 UTC NOAA

KSPS 261652Z 25015KT 10SM CLR 26/04 A2983 RMK AO2 SLP094 T02560039 $


Station Type Date Time Source
KSPS Decoded METAR 2024/02/26 16:52 UTC NOAA

WICHITA FALLS SHEPPARD AFB, TX, United States (KSPS) 33-59N 98-30W 308M
Feb 26, 2024 - 11:52 AM EST / 2024.02.26 1652 UTC
Wind: from the WSW (250 degrees) at 17 MPH (15 KT):0
Visibility: 10 mile(s):0
Sky conditions: clear
Temperature: 78.1 F (25.6 C)
Dew Point: 39.0 F (3.9 C)
Relative Humidity: 24%
Pressure (altimeter): 29.83 in. Hg (1010 hPa)
ob: KSPS 261652Z 25015KT 10SM CLR 26/04 A2983 RMK AO2 SLP094 T02560039
cycle: 17

Station Type Date Time Source
KSPS TAF 2024/02/26 13:58 UTC NOAA